Atlanticborg — PCEC — position and weather

sailwx.info

Track history (hours):
 
Tides and Currents Weather Stations Pressure Air Temp Water Temp Dewpoint Dewpoint Depression Visibility Wind Speed Wind Dir Waves Ship Positions

Atlanticborg

Last reported at 2018-Jul-13 12:41 UTC. Time now 2018-Jul-22 21:52 UTC.
Position N 39°19' W 070°58'.
Warning: this ship's position is 9 days out of date.

Length 142 m; draft 6.1 m.

Type: Cargo ship. MMSI: 245299000.

Date/timePositionNaut miles runAvg speedWind from/ knotsBaromVisibWave heightAir tempDewpointWater temp
2018-Jul-13 12:41N 39°19' W 070°58'312.3
2018-Jul-13 12:28N 39°19' W 071°01'612.2
2018-Jul-13 12:00N 39°18' W 071°08'612.5
2018-Jul-13 11:30N 39°16' W 071°16'812.5
2018-Jul-13 10:54N 39°15' W 071°26'1012.7
2018-Jul-13 10:06N 39°13' W 071°39'112.9
2018-Jul-13 10:00N 39°13' W 071°40'812.8
2018-Jul-13 09:22N 39°11' W 071°51'813.0
2018-Jul-13 08:46N 39°10' W 072°00'413.1
2018-Jul-13 08:29N 39°09' W 072°05'613.1
2018-Jul-13 08:00N 39°08' W 072°13'713.1
2018-Jul-13 07:30N 39°06' W 072°21'612.9
2018-Jul-13 07:00N 39°05' W 072°29'612.9
2018-Jul-13 06:30N 39°04' W 072°38'712.9
2018-Jul-13 05:59N 39°03' W 072°46'612.9
2018-Jul-13 05:30N 39°01' W 072°54'612.9
2018-Jul-13 05:00N 39°00' W 073°02'612.8
2018-Jul-13 04:30N 38°59' W 073°10'613.1
2018-Jul-13 04:00N 38°58' W 073°18'713.1
2018-Jul-13 03:29N 38°56' W 073°27'612.7
2018-Jul-13 03:00N 38°55' W 073°35'612.7
2018-Jul-13 02:31N 38°54' W 073°43'612.5
2018-Jul-13 02:00N 38°53' W 073°51'612.3
2018-Jul-13 01:30N 38°51' W 073°58'612.5
2018-Jul-13 01:01N 38°50' W 074°06'1012.5
2018-Jul-13 00:13N 38°48' W 074°19'312.4
2018-Jul-12 23:57N 38°48' W 074°23'512.3
2018-Jul-12 23:30N 38°47' W 074°30'612.2
2018-Jul-12 23:00N 38°46' W 074°37'1911.6
2018-Jul-12 21:22N 38°46' W 075°02'412.0
2018-Jul-12 21:00N 38°50' W 075°05'611.1
2018-Jul-12 20:26N 38°56' W 075°06'614.6
2018-Jul-12 20:00N 39°02' W 075°09'815.4
2018-Jul-12 19:30N 39°09' W 075°14'816.4
2018-Jul-12 19:00N 39°15' W 075°20'816.7
2018-Jul-12 18:30N 39°22' W 075°27'816.1
2018-Jul-12 18:01N 39°28' W 075°34'815.2
2018-Jul-12 17:31N 39°35' W 075°34'713.1
2018-Jul-12 17:00N 39°42' W 075°31'611.7
2018-Jul-12 16:30N 39°47' W 075°28'510.2
2018-Jul-12 16:00N 39°50' W 075°22'4 8.9
2018-Jul-12 15:30N 39°51' W 075°17'5 9.2
2018-Jul-12 15:00N 39°53' W 075°11'3 6.5
2018-Jul-12 14:30N 39°55' W 075°08'0 0.5
2018-Jul-12 14:00N 39°55' W 075°08'0 0.0
2018-Jul-12 13:28N 39°55' W 075°08'0 0.0
2018-Jul-12 12:58N 39°55' W 075°08'0 0.0
2018-Jul-12 12:28N 39°55' W 075°08'0 0.0
2018-Jul-12 11:58N 39°55' W 075°08'0 0.0
2018-Jul-12 11:28N 39°55' W 075°08'0 0.0
2018-Jul-12 10:58N 39°55' W 075°08'0 0.0
2018-Jul-12 10:28N 39°55' W 075°08'0 0.0
2018-Jul-12 09:59N 39°55' W 075°08'0 0.0
2018-Jul-12 09:28N 39°55' W 075°08'0 0.0
2018-Jul-12 08:59N 39°55' W 075°08'0 0.0
2018-Jul-12 08:28N 39°55' W 075°08'0 0.0
2018-Jul-12 07:59N 39°55' W 075°08'0 0.0
2018-Jul-12 07:28N 39°55' W 075°08'0 0.0
2018-Jul-12 06:58N 39°55' W 075°08'0 0.0
2018-Jul-12 06:28N 39°55' W 075°08'0 0.0
2018-Jul-12 05:55N 39°55' W 075°08'0 0.0
2018-Jul-12 05:28N 39°55' W 075°08'0 0.0
2018-Jul-12 04:58N 39°55' W 075°08'0 0.0
2018-Jul-12 04:28N 39°55' W 075°08'0 0.0
2018-Jul-12 03:59N 39°55' W 075°08'0 0.0
2018-Jul-12 03:28N 39°55' W 075°08'0 0.0
2018-Jul-12 02:58N 39°55' W 075°08'0 0.0
2018-Jul-12 02:28N 39°55' W 075°08'0 0.0
2018-Jul-12 01:58N 39°55' W 075°08'0 0.0
2018-Jul-12 01:28N 39°55' W 075°08'0 0.0
2018-Jul-12 00:58N 39°55' W 075°08'0 0.0
2018-Jul-12 00:28N 39°55' W 075°08'0 0.0
2018-Jul-11 23:55N 39°55' W 075°08'0 0.0
2018-Jul-11 23:28N 39°55' W 075°08'0 0.0
2018-Jul-11 22:58N 39°55' W 075°08'0 0.0
2018-Jul-11 22:28N 39°55' W 075°08'0 0.0
2018-Jul-11 21:59N 39°55' W 075°08'0 0.0
2018-Jul-11 21:28N 39°55' W 075°08'0 0.0
2018-Jul-11 20:59N 39°55' W 075°08'0 0.0
2018-Jul-11 20:28N 39°55' W 075°08'0 0.0
2018-Jul-11 19:58N 39°55' W 075°08'0 0.0
2018-Jul-11 19:28N 39°55' W 075°08'0 0.0
2018-Jul-11 18:58N 39°55' W 075°08'0 0.0
2018-Jul-11 18:28N 39°55' W 075°08'0 0.0
2018-Jul-11 17:58N 39°55' W 075°08'0 0.0
2018-Jul-11 17:23N 39°55' W 075°08'0 0.0
2018-Jul-11 16:58N 39°55' W 075°08'0 0.0
2018-Jul-11 16:28N 39°55' W 075°08'0 0.0
2018-Jul-11 15:58N 39°55' W 075°08'0 0.0
2018-Jul-11 15:28N 39°55' W 075°08'0 0.0
2018-Jul-11 14:58N 39°55' W 075°08'0 0.0
2018-Jul-11 14:28N 39°55' W 075°08'0 0.0
2018-Jul-11 13:58N 39°55' W 075°08'0 0.0
2018-Jul-11 13:29N 39°55' W 075°08'0 0.0
2018-Jul-11 12:58N 39°55' W 075°08'0 0.0
2018-Jul-11 12:28N 39°55' W 075°08'0 0.0
2018-Jul-11 11:58N 39°55' W 075°08'0 0.0
2018-Jul-11 11:28N 39°55' W 075°08'0 0.0
2018-Jul-11 10:55N 39°55' W 075°08'0 0.0
2018-Jul-11 10:28N 39°55' W 075°08'0 0.0
2018-Jul-11 09:58N 39°55' W 075°08'0 0.0
2018-Jul-11 09:28N 39°55' W 075°08'0 0.0
2018-Jul-11 08:58N 39°55' W 075°08'0 0.0
2018-Jul-11 08:28N 39°55' W 075°08'0 0.0
2018-Jul-11 07:58N 39°55' W 075°08'0 0.0
2018-Jul-11 07:28N 39°55' W 075°08'0 0.0
2018-Jul-11 06:58N 39°55' W 075°08'0 0.0
2018-Jul-11 06:28N 39°55' W 075°08'0 0.0
2018-Jul-11 05:58N 39°55' W 075°08'0 0.0
2018-Jul-11 05:28N 39°55' W 075°08'0 0.0
2018-Jul-11 04:58N 39°55' W 075°08'0 0.0
2018-Jul-11 04:28N 39°55' W 075°08'0 0.0
2018-Jul-11 03:58N 39°55' W 075°08'0 0.0
2018-Jul-11 03:28N 39°55' W 075°08'0 0.0
2018-Jul-11 02:58N 39°55' W 075°08'0 0.0
2018-Jul-11 02:28N 39°55' W 075°08'0 0.0
2018-Jul-11 01:58N 39°55' W 075°08'0 0.0
2018-Jul-11 01:28N 39°55' W 075°08'0 0.0
2018-Jul-11 00:58N 39°55' W 075°08'0 0.0
2018-Jul-11 00:28N 39°55' W 075°08'0 0.0
2018-Jul-10 23:58N 39°55' W 075°08'0 0.0
2018-Jul-10 23:28N 39°55' W 075°08'0 0.0
2018-Jul-10 22:58N 39°55' W 075°08'0 0.0
2018-Jul-10 22:28N 39°55' W 075°08'0 0.0
2018-Jul-10 21:58N 39°55' W 075°08'0 0.0
2018-Jul-10 21:28N 39°55' W 075°08'0 0.0
2018-Jul-10 20:58N 39°55' W 075°08'0 0.0
2018-Jul-10 20:28N 39°55' W 075°08'0 0.0
2018-Jul-10 19:58N 39°55' W 075°08'0 0.0
2018-Jul-10 19:29N 39°55' W 075°08'0 0.0
2018-Jul-10 18:58N 39°55' W 075°08'0 0.0
2018-Jul-10 18:28N 39°55' W 075°08'0 0.0
2018-Jul-10 17:58N 39°55' W 075°08'0 0.0
2018-Jul-10 17:28N 39°55' W 075°08'0 0.0
2018-Jul-10 16:58N 39°55' W 075°08'0 0.0
2018-Jul-10 16:25N 39°55' W 075°08'0 0.0
2018-Jul-10 15:58N 39°55' W 075°08'0 0.0
2018-Jul-10 15:28N 39°55' W 075°08'0 0.0
2018-Jul-10 14:58N 39°55' W 075°08'0 0.0
2018-Jul-10 14:25N 39°55' W 075°08'0 0.0
2018-Jul-10 13:58N 39°55' W 075°08'0 0.0
2018-Jul-10 13:25N 39°55' W 075°08'0 0.0
2018-Jul-10 12:58N 39°55' W 075°08'0 0.0
2018-Jul-10 12:28N 39°55' W 075°08'0 0.0
2018-Jul-10 11:55N 39°55' W 075°08'0 0.0
2018-Jul-10 11:28N 39°55' W 075°08'0 0.0
2018-Jul-10 10:58N 39°55' W 075°08'0 0.0
2018-Jul-10 10:28N 39°55' W 075°08'0 0.0
2018-Jul-10 09:58N 39°55' W 075°08'0 0.0
2018-Jul-10 09:28N 39°55' W 075°08'0 0.0
2018-Jul-10 08:58N 39°55' W 075°08'0 0.0
2018-Jul-10 08:25N 39°55' W 075°08'0 0.0
2018-Jul-10 07:59N 39°55' W 075°08'0 0.0
2018-Jul-10 07:29N 39°55' W 075°08'0 0.0
2018-Jul-10 06:58N 39°55' W 075°08'0 0.0
2018-Jul-10 06:29N 39°55' W 075°08'0 0.0
2018-Jul-10 05:59N 39°55' W 075°08'0 0.0
2018-Jul-10 05:29N 39°55' W 075°08'0 0.0
2018-Jul-10 04:58N 39°55' W 075°08'0 0.0
2018-Jul-10 04:28N 39°55' W 075°08'0 0.0
2018-Jul-10 03:58N 39°55' W 075°08'0 0.0
2018-Jul-10 03:28N 39°55' W 075°08'0 0.0
2018-Jul-10 02:58N 39°55' W 075°08'0 0.0
2018-Jul-10 02:28N 39°55' W 075°08'0 0.0
2018-Jul-10 01:58N 39°55' W 075°08'0 0.0
2018-Jul-10 01:28N 39°55' W 075°08'0 0.0
2018-Jul-10 00:58N 39°55' W 075°08'0 0.0
2018-Jul-10 00:29N 39°55' W 075°08'0 0.0
2018-Jul-09 23:59N 39°55' W 075°08'0 0.0
2018-Jul-09 23:29N 39°55' W 075°08'0 0.0
2018-Jul-09 22:58N 39°55' W 075°08'0 0.0
2018-Jul-09 22:29N 39°55' W 075°08'0 0.0
2018-Jul-09 21:59N 39°55' W 075°08'0 0.0
2018-Jul-09 21:29N 39°55' W 075°08'0 0.0
2018-Jul-09 20:58N 39°55' W 075°08'0 0.0
2018-Jul-09 20:28N 39°55' W 075°08'0 0.0
2018-Jul-09 19:59N 39°55' W 075°08'0 0.0
2018-Jul-09 19:29N 39°55' W 075°08'0 0.0
2018-Jul-09 18:58N 39°55' W 075°08'0 0.0
2018-Jul-09 18:28N 39°55' W 075°08'0 0.0
2018-Jul-09 17:58N 39°55' W 075°08'0 0.0
2018-Jul-09 17:28N 39°55' W 075°08'0 0.0
2018-Jul-09 16:55N 39°55' W 075°08'0 0.0
2018-Jul-09 16:28N 39°55' W 075°08'0 0.0
2018-Jul-09 15:58N 39°55' W 075°08'0 0.0
2018-Jul-09 15:28N 39°55' W 075°08'0 0.0
2018-Jul-09 14:58N 39°55' W 075°08'0 0.0
2018-Jul-09 14:28N 39°55' W 075°08'0 0.0
2018-Jul-09 13:58N 39°55' W 075°08'0 0.0
2018-Jul-09 13:28N 39°55' W 075°08'0 0.0
2018-Jul-09 12:58N 39°55' W 075°08'0 0.0
2018-Jul-09 12:28N 39°55' W 075°08'0 0.0
2018-Jul-09 11:58N 39°55' W 075°08'0 0.0
2018-Jul-09 11:28N 39°55' W 075°08'0 0.0
2018-Jul-09 10:58N 39°55' W 075°08'0 0.0
2018-Jul-09 10:28N 39°55' W 075°08'0 0.0
2018-Jul-09 09:55N 39°55' W 075°08'0 0.0
2018-Jul-09 09:28N 39°55' W 075°08'0 0.0
2018-Jul-09 08:58N 39°55' W 075°08'0 0.0
2018-Jul-09 08:28N 39°55' W 075°08'0 0.0
2018-Jul-09 07:58N 39°55' W 075°08'0 0.0
2018-Jul-09 07:28N 39°55' W 075°08'0 0.0
2018-Jul-09 06:58N 39°55' W 075°08'0 0.0
2018-Jul-09 06:28N 39°55' W 075°08'0 0.0
2018-Jul-09 05:58N 39°55' W 075°08'0 0.0
2018-Jul-09 05:28N 39°55' W 075°08'0 0.0
2018-Jul-09 04:58N 39°55' W 075°08'0 0.0
2018-Jul-09 04:28N 39°55' W 075°08'0 0.0
2018-Jul-09 03:55N 39°55' W 075°08'0 0.0
2018-Jul-09 03:28N 39°55' W 075°08'0 0.0
2018-Jul-09 02:58N 39°55' W 075°08'0 0.0
2018-Jul-09 02:28N 39°55' W 075°08'0 0.0
2018-Jul-09 01:58N 39°55' W 075°08'0 0.0
2018-Jul-09 01:29N 39°55' W 075°08'0 0.0
2018-Jul-09 00:58N 39°55' W 075°08'0 0.0
2018-Jul-09 00:28N 39°55' W 075°08'0 0.0
2018-Jul-08 23:59N 39°55' W 075°08'0 0.0
2018-Jul-08 23:29N 39°55' W 075°08'0 0.0
2018-Jul-08 22:58N 39°55' W 075°08'0 0.0
2018-Jul-08 22:28N 39°55' W 075°08'0 0.0
2018-Jul-08 21:52N 39°55' W 075°08'0 0.0
2018-Jul-08 21:28N 39°55' W 075°08'0 0.0
2018-Jul-08 20:58N 39°55' W 075°08'0 0.0
2018-Jul-08 20:28N 39°55' W 075°08'0 0.0
2018-Jul-08 19:58N 39°55' W 075°08'0 0.0
2018-Jul-08 19:28N 39°55' W 075°08'0 0.0
2018-Jul-08 18:58N 39°55' W 075°08'0 0.0
2018-Jul-08 18:28N 39°55' W 075°08'0 0.0
2018-Jul-08 17:55N 39°55' W 075°08'0 0.0
2018-Jul-08 17:22N 39°55' W 075°08'0 0.0
2018-Jul-08 16:58N 39°55' W 075°08'0 0.0
2018-Jul-08 16:28N 39°55' W 075°08'0 0.0
2018-Jul-08 15:58N 39°55' W 075°08'0 0.0
2018-Jul-08 15:28N 39°55' W 075°08'0 0.0
2018-Jul-08 14:58N 39°55' W 075°08'0 0.0
2018-Jul-08 14:28N 39°55' W 075°08'0 0.0
2018-Jul-08 13:58N 39°55' W 075°08'0 0.0
2018-Jul-08 13:25N 39°55' W 075°08'0 0.0
2018-Jul-08 12:58N 39°55' W 075°08'0 0.0
2018-Jul-08 12:28N 39°55' W 075°08'0 0.0
2018-Jul-08 11:58N 39°55' W 075°08'0 0.0
2018-Jul-08 11:28N 39°55' W 075°08'0 0.0
2018-Jul-08 11:00N 39°55' W 075°08'0 0.0
2018-Jul-08 10:30N 39°55' W 075°08'0 0.0
2018-Jul-08 10:00N 39°55' W 075°08'0 0.0
2018-Jul-08 09:29N 39°55' W 075°08'0 0.0
2018-Jul-08 08:59N 39°55' W 075°08'0 0.0
2018-Jul-08 08:29N 39°55' W 075°08'0 0.0
2018-Jul-08 07:59N 39°55' W 075°08'0 0.0
2018-Jul-08 07:29N 39°55' W 075°08'0 0.0
2018-Jul-08 06:59N 39°55' W 075°08'0 0.0
2018-Jul-08 06:29N 39°55' W 075°08'0 0.0
2018-Jul-08 05:59N 39°55' W 075°08'0 0.0
2018-Jul-08 05:29N 39°55' W 075°08'0 0.0
2018-Jul-08 04:59N 39°55' W 075°08'0 0.0
2018-Jul-08 04:30N 39°55' W 075°08'0 0.5
2018-Jul-08 04:00N 39°55' W 075°08'2 4.8
2018-Jul-08 03:30N 39°53' W 075°09'4 8.3
2018-Jul-08 03:00N 39°51' W 075°14'5 9.6
2018-Jul-08 02:30N 39°51' W 075°20'5 9.7
2018-Jul-08 02:00N 39°48' W 075°26'612.0
2018-Jul-08 01:30N 39°43' W 075°30'612.4
2018-Jul-08 01:00N 39°38' W 075°34'713.3
2018-Jul-08 00:30N 39°31' W 075°33'612.9
2018-Jul-08 00:00N 39°25' W 075°31'714.7
2018-Jul-07 23:30N 39°20' W 075°25'714.6
2018-Jul-07 23:00N 39°14' W 075°18'714.2
2018-Jul-07 22:30N 39°08' W 075°14'611.8
2018-Jul-07 22:00N 39°03' W 075°10'  
Track history (hours):
 
Tides and Currents Weather Stations Pressure Air Temp Water Temp Dewpoint Dewpoint Depression Visibility Wind Speed Wind Dir Waves Ship Positions

Atlanticborg

Last reported at 2018-Jul-13 12:41 UTC. Time now 2018-Jul-22 21:52 UTC.
Position N 39°19' W 070°58'.
Warning: this ship's position is 9 days out of date.

Length 142 m; draft 6.1 m.

Type: Cargo ship. MMSI: 245299000.

Date/timePositionNaut miles runAvg speedWind from/ knotsBaromVisibWave heightAir tempDewpointWater temp
2018-Jul-13 12:41N 39°19' W 070°58'312.3
2018-Jul-13 12:28N 39°19' W 071°01'612.2
2018-Jul-13 12:00N 39°18' W 071°08'612.5
2018-Jul-13 11:30N 39°16' W 071°16'812.5
2018-Jul-13 10:54N 39°15' W 071°26'1012.7
2018-Jul-13 10:06N 39°13' W 071°39'112.9
2018-Jul-13 10:00N 39°13' W 071°40'812.8
2018-Jul-13 09:22N 39°11' W 071°51'813.0
2018-Jul-13 08:46N 39°10' W 072°00'413.1
2018-Jul-13 08:29N 39°09' W 072°05'613.1
2018-Jul-13 08:00N 39°08' W 072°13'713.1
2018-Jul-13 07:30N 39°06' W 072°21'612.9
2018-Jul-13 07:00N 39°05' W 072°29'612.9
2018-Jul-13 06:30N 39°04' W 072°38'712.9
2018-Jul-13 05:59N 39°03' W 072°46'612.9
2018-Jul-13 05:30N 39°01' W 072°54'612.9
2018-Jul-13 05:00N 39°00' W 073°02'612.8
2018-Jul-13 04:30N 38°59' W 073°10'613.1
2018-Jul-13 04:00N 38°58' W 073°18'713.1
2018-Jul-13 03:29N 38°56' W 073°27'612.7
2018-Jul-13 03:00N 38°55' W 073°35'612.7
2018-Jul-13 02:31N 38°54' W 073°43'612.5
2018-Jul-13 02:00N 38°53' W 073°51'612.3
2018-Jul-13 01:30N 38°51' W 073°58'612.5
2018-Jul-13 01:01N 38°50' W 074°06'1012.5
2018-Jul-13 00:13N 38°48' W 074°19'312.4
2018-Jul-12 23:57N 38°48' W 074°23'512.3
2018-Jul-12 23:30N 38°47' W 074°30'612.2
2018-Jul-12 23:00N 38°46' W 074°37'1911.6
2018-Jul-12 21:22N 38°46' W 075°02'412.0
2018-Jul-12 21:00N 38°50' W 075°05'611.1
2018-Jul-12 20:26N 38°56' W 075°06'614.6
2018-Jul-12 20:00N 39°02' W 075°09'815.4
2018-Jul-12 19:30N 39°09' W 075°14'816.4
2018-Jul-12 19:00N 39°15' W 075°20'816.7
2018-Jul-12 18:30N 39°22' W 075°27'816.1
2018-Jul-12 18:01N 39°28' W 075°34'815.2
2018-Jul-12 17:31N 39°35' W 075°34'713.1
2018-Jul-12 17:00N 39°42' W 075°31'611.7
2018-Jul-12 16:30N 39°47' W 075°28'510.2
2018-Jul-12 16:00N 39°50' W 075°22'4 8.9
2018-Jul-12 15:30N 39°51' W 075°17'5 9.2
2018-Jul-12 15:00N 39°53' W 075°11'3 6.5
2018-Jul-12 14:30N 39°55' W 075°08'0 0.5
2018-Jul-12 14:00N 39°55' W 075°08'0 0.0
2018-Jul-12 13:28N 39°55' W 075°08'0 0.0
2018-Jul-12 12:58N 39°55' W 075°08'0 0.0
2018-Jul-12 12:28N 39°55' W 075°08'0 0.0
2018-Jul-12 11:58N 39°55' W 075°08'0 0.0
2018-Jul-12 11:28N 39°55' W 075°08'0 0.0
2018-Jul-12 10:58N 39°55' W 075°08'0 0.0
2018-Jul-12 10:28N 39°55' W 075°08'0 0.0
2018-Jul-12 09:59N 39°55' W 075°08'0 0.0
2018-Jul-12 09:28N 39°55' W 075°08'0 0.0
2018-Jul-12 08:59N 39°55' W 075°08'0 0.0
2018-Jul-12 08:28N 39°55' W 075°08'0 0.0
2018-Jul-12 07:59N 39°55' W 075°08'0 0.0
2018-Jul-12 07:28N 39°55' W 075°08'0 0.0
2018-Jul-12 06:58N 39°55' W 075°08'0 0.0
2018-Jul-12 06:28N 39°55' W 075°08'0 0.0
2018-Jul-12 05:55N 39°55' W 075°08'0 0.0
2018-Jul-12 05:28N 39°55' W 075°08'0 0.0
2018-Jul-12 04:58N 39°55' W 075°08'0 0.0
2018-Jul-12 04:28N 39°55' W 075°08'0 0.0
2018-Jul-12 03:59N 39°55' W 075°08'0 0.0
2018-Jul-12 03:28N 39°55' W 075°08'0 0.0
2018-Jul-12 02:58N 39°55' W 075°08'0 0.0
2018-Jul-12 02:28N 39°55' W 075°08'0 0.0
2018-Jul-12 01:58N 39°55' W 075°08'0 0.0
2018-Jul-12 01:28N 39°55' W 075°08'0 0.0
2018-Jul-12 00:58N 39°55' W 075°08'0 0.0
2018-Jul-12 00:28N 39°55' W 075°08'0 0.0
2018-Jul-11 23:55N 39°55' W 075°08'0 0.0
2018-Jul-11 23:28N 39°55' W 075°08'0 0.0
2018-Jul-11 22:58N 39°55' W 075°08'0 0.0
2018-Jul-11 22:28N 39°55' W 075°08'0 0.0
2018-Jul-11 21:59N 39°55' W 075°08'0 0.0
2018-Jul-11 21:28N 39°55' W 075°08'0 0.0
2018-Jul-11 20:59N 39°55' W 075°08'0 0.0
2018-Jul-11 20:28N 39°55' W 075°08'0 0.0
2018-Jul-11 19:58N 39°55' W 075°08'0 0.0
2018-Jul-11 19:28N 39°55' W 075°08'0 0.0
2018-Jul-11 18:58N 39°55' W 075°08'0 0.0
2018-Jul-11 18:28N 39°55' W 075°08'0 0.0
2018-Jul-11 17:58N 39°55' W 075°08'0 0.0
2018-Jul-11 17:23N 39°55' W 075°08'0 0.0
2018-Jul-11 16:58N 39°55' W 075°08'0 0.0
2018-Jul-11 16:28N 39°55' W 075°08'0 0.0
2018-Jul-11 15:58N 39°55' W 075°08'0 0.0
2018-Jul-11 15:28N 39°55' W 075°08'0 0.0
2018-Jul-11 14:58N 39°55' W 075°08'0 0.0
2018-Jul-11 14:28N 39°55' W 075°08'0 0.0
2018-Jul-11 13:58N 39°55' W 075°08'0 0.0
2018-Jul-11 13:29N 39°55' W 075°08'0 0.0
2018-Jul-11 12:58N 39°55' W 075°08'0 0.0
2018-Jul-11 12:28N 39°55' W 075°08'0 0.0
2018-Jul-11 11:58N 39°55' W 075°08'0 0.0
2018-Jul-11 11:28N 39°55' W 075°08'0 0.0
2018-Jul-11 10:55N 39°55' W 075°08'0 0.0
2018-Jul-11 10:28N 39°55' W 075°08'0 0.0
2018-Jul-11 09:58N 39°55' W 075°08'0 0.0
2018-Jul-11 09:28N 39°55' W 075°08'0 0.0
2018-Jul-11 08:58N 39°55' W 075°08'0 0.0
2018-Jul-11 08:28N 39°55' W 075°08'0 0.0
2018-Jul-11 07:58N 39°55' W 075°08'0 0.0
2018-Jul-11 07:28N 39°55' W 075°08'0 0.0
2018-Jul-11 06:58N 39°55' W 075°08'0 0.0
2018-Jul-11 06:28N 39°55' W 075°08'0 0.0
2018-Jul-11 05:58N 39°55' W 075°08'0 0.0
2018-Jul-11 05:28N 39°55' W 075°08'0 0.0
2018-Jul-11 04:58N 39°55' W 075°08'0 0.0
2018-Jul-11 04:28N 39°55' W 075°08'0 0.0
2018-Jul-11 03:58N 39°55' W 075°08'0 0.0
2018-Jul-11 03:28N 39°55' W 075°08'0 0.0
2018-Jul-11 02:58N 39°55' W 075°08'0 0.0
2018-Jul-11 02:28N 39°55' W 075°08'0 0.0
2018-Jul-11 01:58N 39°55' W 075°08'0 0.0
2018-Jul-11 01:28N 39°55' W 075°08'0 0.0
2018-Jul-11 00:58N 39°55' W 075°08'0 0.0
2018-Jul-11 00:28N 39°55' W 075°08'0 0.0
2018-Jul-10 23:58N 39°55' W 075°08'0 0.0
2018-Jul-10 23:28N 39°55' W 075°08'0 0.0
2018-Jul-10 22:58N 39°55' W 075°08'0 0.0
2018-Jul-10 22:28N 39°55' W 075°08'0 0.0
2018-Jul-10 21:58N 39°55' W 075°08'0 0.0
2018-Jul-10 21:28N 39°55' W 075°08'0 0.0
2018-Jul-10 20:58N 39°55' W 075°08'0 0.0
2018-Jul-10 20:28N 39°55' W 075°08'0 0.0
2018-Jul-10 19:58N 39°55' W 075°08'0 0.0
2018-Jul-10 19:29N 39°55' W 075°08'0 0.0
2018-Jul-10 18:58N 39°55' W 075°08'0 0.0
2018-Jul-10 18:28N 39°55' W 075°08'0 0.0
2018-Jul-10 17:58N 39°55' W 075°08'0 0.0
2018-Jul-10 17:28N 39°55' W 075°08'0 0.0
2018-Jul-10 16:58N 39°55' W 075°08'0 0.0
2018-Jul-10 16:25N 39°55' W 075°08'0 0.0
2018-Jul-10 15:58N 39°55' W 075°08'0 0.0
2018-Jul-10 15:28N 39°55' W 075°08'0 0.0
2018-Jul-10 14:58N 39°55' W 075°08'0 0.0
2018-Jul-10 14:25N 39°55' W 075°08'0 0.0
2018-Jul-10 13:58N 39°55' W 075°08'0 0.0
2018-Jul-10 13:25N 39°55' W 075°08'0 0.0
2018-Jul-10 12:58N 39°55' W 075°08'0 0.0
2018-Jul-10 12:28N 39°55' W 075°08'0 0.0
2018-Jul-10 11:55N 39°55' W 075°08'0 0.0
2018-Jul-10 11:28N 39°55' W 075°08'0 0.0
2018-Jul-10 10:58N 39°55' W 075°08'0 0.0
2018-Jul-10 10:28N 39°55' W 075°08'0 0.0
2018-Jul-10 09:58N 39°55' W 075°08'0 0.0
2018-Jul-10 09:28N 39°55' W 075°08'0 0.0
2018-Jul-10 08:58N 39°55' W 075°08'0 0.0
2018-Jul-10 08:25N 39°55' W 075°08'0 0.0
2018-Jul-10 07:59N 39°55' W 075°08'0 0.0
2018-Jul-10 07:29N 39°55' W 075°08'0 0.0
2018-Jul-10 06:58N 39°55' W 075°08'0 0.0
2018-Jul-10 06:29N 39°55' W 075°08'0 0.0
2018-Jul-10 05:59N 39°55' W 075°08'0 0.0
2018-Jul-10 05:29N 39°55' W 075°08'0 0.0
2018-Jul-10 04:58N 39°55' W 075°08'0 0.0
2018-Jul-10 04:28N 39°55' W 075°08'0 0.0
2018-Jul-10 03:58N 39°55' W 075°08'0 0.0
2018-Jul-10 03:28N 39°55' W 075°08'0 0.0
2018-Jul-10 02:58N 39°55' W 075°08'0 0.0
2018-Jul-10 02:28N 39°55' W 075°08'0 0.0
2018-Jul-10 01:58N 39°55' W 075°08'0 0.0
2018-Jul-10 01:28N 39°55' W 075°08'0 0.0
2018-Jul-10 00:58N 39°55' W 075°08'0 0.0
2018-Jul-10 00:29N 39°55' W 075°08'0 0.0
2018-Jul-09 23:59N 39°55' W 075°08'0 0.0
2018-Jul-09 23:29N 39°55' W 075°08'0 0.0
2018-Jul-09 22:58N 39°55' W 075°08'0 0.0
2018-Jul-09 22:29N 39°55' W 075°08'0 0.0
2018-Jul-09 21:59N 39°55' W 075°08'0 0.0
2018-Jul-09 21:29N 39°55' W 075°08'0 0.0
2018-Jul-09 20:58N 39°55' W 075°08'0 0.0
2018-Jul-09 20:28N 39°55' W 075°08'0 0.0
2018-Jul-09 19:59N 39°55' W 075°08'0 0.0
2018-Jul-09 19:29N 39°55' W 075°08'0 0.0
2018-Jul-09 18:58N 39°55' W 075°08'0 0.0
2018-Jul-09 18:28N 39°55' W 075°08'0 0.0
2018-Jul-09 17:58N 39°55' W 075°08'0 0.0
2018-Jul-09 17:28N 39°55' W 075°08'0 0.0
2018-Jul-09 16:55N 39°55' W 075°08'0 0.0
2018-Jul-09 16:28N 39°55' W 075°08'0 0.0
2018-Jul-09 15:58N 39°55' W 075°08'0 0.0
2018-Jul-09 15:28N 39°55' W 075°08'0 0.0
2018-Jul-09 14:58N 39°55' W 075°08'0 0.0
2018-Jul-09 14:28N 39°55' W 075°08'0 0.0
2018-Jul-09 13:58N 39°55' W 075°08'0 0.0
2018-Jul-09 13:28N 39°55' W 075°08'0 0.0
2018-Jul-09 12:58N 39°55' W 075°08'0 0.0
2018-Jul-09 12:28N 39°55' W 075°08'0 0.0
2018-Jul-09 11:58N 39°55' W 075°08'0 0.0
2018-Jul-09 11:28N 39°55' W 075°08'0 0.0
2018-Jul-09 10:58N 39°55' W 075°08'0 0.0
2018-Jul-09 10:28N 39°55' W 075°08'0 0.0
2018-Jul-09 09:55N 39°55' W 075°08'0 0.0
2018-Jul-09 09:28N 39°55' W 075°08'0 0.0
2018-Jul-09 08:58N 39°55' W 075°08'0 0.0
2018-Jul-09 08:28N 39°55' W 075°08'0 0.0
2018-Jul-09 07:58N 39°55' W 075°08'0 0.0
2018-Jul-09 07:28N 39°55' W 075°08'0 0.0
2018-Jul-09 06:58N 39°55' W 075°08'0 0.0
2018-Jul-09 06:28N 39°55' W 075°08'0 0.0
2018-Jul-09 05:58N 39°55' W 075°08'0 0.0
2018-Jul-09 05:28N 39°55' W 075°08'0 0.0
2018-Jul-09 04:58N 39°55' W 075°08'0 0.0
2018-Jul-09 04:28N 39°55' W 075°08'0 0.0
2018-Jul-09 03:55N 39°55' W 075°08'0 0.0
2018-Jul-09 03:28N 39°55' W 075°08'0 0.0
2018-Jul-09 02:58N 39°55' W 075°08'0 0.0
2018-Jul-09 02:28N 39°55' W 075°08'0 0.0
2018-Jul-09 01:58N 39°55' W 075°08'0 0.0
2018-Jul-09 01:29N 39°55' W 075°08'0 0.0
2018-Jul-09 00:58N 39°55' W 075°08'0 0.0
2018-Jul-09 00:28N 39°55' W 075°08'0 0.0
2018-Jul-08 23:59N 39°55' W 075°08'0 0.0
2018-Jul-08 23:29N 39°55' W 075°08'0 0.0
2018-Jul-08 22:58N 39°55' W 075°08'0 0.0
2018-Jul-08 22:28N 39°55' W 075°08'0 0.0
2018-Jul-08 21:52N 39°55' W 075°08'0 0.0
2018-Jul-08 21:28N 39°55' W 075°08'0 0.0
2018-Jul-08 20:58N 39°55' W 075°08'0 0.0
2018-Jul-08 20:28N 39°55' W 075°08'0 0.0
2018-Jul-08 19:58N 39°55' W 075°08'0 0.0
2018-Jul-08 19:28N 39°55' W 075°08'0 0.0
2018-Jul-08 18:58N 39°55' W 075°08'0 0.0
2018-Jul-08 18:28N 39°55' W 075°08'0 0.0
2018-Jul-08 17:55N 39°55' W 075°08'0 0.0
2018-Jul-08 17:22N 39°55' W 075°08'0 0.0
2018-Jul-08 16:58N 39°55' W 075°08'0 0.0
2018-Jul-08 16:28N 39°55' W 075°08'0 0.0
2018-Jul-08 15:58N 39°55' W 075°08'0 0.0
2018-Jul-08 15:28N 39°55' W 075°08'0 0.0
2018-Jul-08 14:58N 39°55' W 075°08'0 0.0
2018-Jul-08 14:28N 39°55' W 075°08'0 0.0
2018-Jul-08 13:58N 39°55' W 075°08'0 0.0
2018-Jul-08 13:25N 39°55' W 075°08'0 0.0
2018-Jul-08 12:58N 39°55' W 075°08'0 0.0
2018-Jul-08 12:28N 39°55' W 075°08'0 0.0
2018-Jul-08 11:58N 39°55' W 075°08'0 0.0
2018-Jul-08 11:28N 39°55' W 075°08'0 0.0
2018-Jul-08 11:00N 39°55' W 075°08'0 0.0
2018-Jul-08 10:30N 39°55' W 075°08'0 0.0
2018-Jul-08 10:00N 39°55' W 075°08'0 0.0
2018-Jul-08 09:29N 39°55' W 075°08'0 0.0
2018-Jul-08 08:59N 39°55' W 075°08'0 0.0
2018-Jul-08 08:29N 39°55' W 075°08'0 0.0
2018-Jul-08 07:59N 39°55' W 075°08'0 0.0
2018-Jul-08 07:29N 39°55' W 075°08'0 0.0
2018-Jul-08 06:59N 39°55' W 075°08'0 0.0
2018-Jul-08 06:29N 39°55' W 075°08'0 0.0
2018-Jul-08 05:59N 39°55' W 075°08'0 0.0
2018-Jul-08 05:29N 39°55' W 075°08'0 0.0
2018-Jul-08 04:59N 39°55' W 075°08'0 0.0
2018-Jul-08 04:30N 39°55' W 075°08'0 0.5
2018-Jul-08 04:00N 39°55' W 075°08'2 4.8
2018-Jul-08 03:30N 39°53' W 075°09'4 8.3
2018-Jul-08 03:00N 39°51' W 075°14'5 9.6
2018-Jul-08 02:30N 39°51' W 075°20'5 9.7
2018-Jul-08 02:00N 39°48' W 075°26'612.0
2018-Jul-08 01:30N 39°43' W 075°30'612.4
2018-Jul-08 01:00N 39°38' W 075°34'713.3
2018-Jul-08 00:30N 39°31' W 075°33'612.9
2018-Jul-08 00:00N 39°25' W 075°31'714.7
2018-Jul-07 23:30N 39°20' W 075°25'714.6
2018-Jul-07 23:00N 39°14' W 075°18'714.2
2018-Jul-07 22:30N 39°08' W 075°14'611.8
2018-Jul-07 22:00N 39°03' W 075°10'  

Dump ship's entire track history